Terminal Aerodrome Forecast
Issued by NWS

Home | Current Version | Previous Version | Text Only | Print | Product List | Glossary Off
Versions: 1 2 3 4 5 6 7 8 9 10 11 12 13 14 15 16 17 18 19 20 21 22

000
FTUS42 KMHX 010520
TAFOAJ
TAF
KOAJ 010520Z 0106/0206 04010KT P6SM BKN030 OVC050
     FM011000 05007KT P6SM BKN020
     FM011800 15006KT P6SM BKN020
     FM012300 23007KT 5SM -RA OVC010
      AMD LTD TO CLD VIS AND WIND=

USA.gov is the U.S. government's official web portal to all federal, state and local government web resources and services.